Star Alliance - YPPD Airport Info

    YPPD (Port Hedland International Airport)  Login to use Map Selector

  RUNWAY INFORMATION    |    Airport Elevation : 33ft    |    LAT : -20.3777999878  /  LON : 118.625999451
Runway Number 14 / 32 Runway Width 148' Runway Length 8202'
Lighted Runway Yes Runway StatusOpen Runway Surface Asphalt
Runway Number 18 / 36 Runway Width 59' Runway Length 3281'
Lighted Runway No Runway StatusOpen Runway Surface Asphalt
  CLOSE ALTERNATE AIRPORTS
ICAODistanceAirport NameLongest RWRW SurfaceMAP
YPKA106NMKarratha Airport6070FTAsphalt
  AIRPORT WEATHER
77°F | 25°C
Temperature
94%
Humidity
29.68" | 0mb
Pressure
6sm
Visibility
VFR
Flight Rules
CLR
Initial Clouds
FAIR
Conditions
Wind Info
11/27/22 17:30Z
Updated

YPPD 271730Z AUTO 36005KT 9999 // NCD 25/24 Q1005 RF00.0/000.0
  AIRPORT FREQUENCIES
NameFrequency
GROUND119.900
TOWER119.900
  PILOT ENTERED AIRPORT INFORMATION SEE ALL PILOT ENTERED AIRPORT INFO

Powered by Virtual Airlines Manager